KAHN

Athens / Ben Epps Airport

Athens, Georgia, USA
METAR KAHN 210451Z AUTO 31004KT 10SM CLR 05/01 A3020 RMK AO2 SLP227 T00500011 401670050
Observed Flight Rules
Nov-21 @ 04:51 UTC (an hour ago) Visual Flight Rules
Wind Visibility Clouds
310° at 4 knots 10 miles
  • Clear skies
Temperatures Readings
Current 5°C / 41°F
Dewpoint 1°C / 34°F
Humidity 76%
Altimeter 30.2" Hg
Pressure 1022.7 hPa
Elevation 244
METAR KAHN 210451Z AUTO 31004KT 10SM CLR 05/01 A3020 RMK AO2 SLP227 T00500011 401670050
Observed Flight Rules
Nov-21 @ 04:51 UTC
(an hour ago)
VFR
Wind Visibility
310° at 4 knots 10 miles
Clouds
  • Clear skies
Temperature Dewpoint
5°C / 41°F 1°C / 34°F
Humidity Altimeter Pressure
76% 30.2" Hg 1022.7 hPa